Time;durP1;ratioP1;P1;durP2;ratioP2;P2;SDS_P1;SDS_P2;PMS_P1;PMS_P2;Temp;Humidity;BMP_temperature;BMP_pressure;BME280_temperature;BME280_humidity;BME280_pressure;Samples;Min_cycle;Max_cycle;Signal;HPM_P1;HPM_P2
2023/01/25 00:01:43;;;;;;;;;;;;;;;;;;5029286;28;818;-71
2023/01/25 00:04:08;;;;;;;;;;;;;;;;;;5029543;28;1303;-72
2023/01/25 00:06:33;;;;;;;;;;;;;;;;;;5013029;28;1215;-72
2023/01/25 00:08:59;;;;;;;;;;;;;;;;;;5029543;28;1284;-71
2023/01/25 00:11:24;;;;;;;;;;;;;;;;;;5030454;28;1929;-71
2023/01/25 00:13:52;;;;;;;;;;;;;;;;;;5015547;28;1176;-71
2023/01/25 00:16:17;;;;;;;;;;;;;;;;;;5033889;28;1115;-71
2023/01/25 00:18:42;;;;;;;;;;;;;;;;;;5032819;28;1228;-72
2023/01/25 00:21:11;;;;;;;;;;;;;;;;;;5035022;28;853;-71
2023/01/25 00:23:37;;;;;;;;;;;;;;;;;;5034789;28;962;-71
2023/01/25 00:26:02;;;;;;;;;;;;;;;;;;5032989;28;1292;-71
2023/01/25 00:28:27;;;;;;;;;;;;;;;;;;5016614;28;1225;-71
2023/01/25 00:30:52;;;;;;;;;;;;;;;;;;5033383;28;1910;-71
2023/01/25 00:33:18;;;;;;;;;;;;;;;;;;5033385;28;1421;-72
2023/01/25 00:35:43;;;;;;;;;;;;;;;;;;5032425;28;1261;-71
2023/01/25 00:38:27;;;;;;;;;;;;;;;;;;5033153;28;1041;-72
2023/01/25 00:40:53;;;;;;;;;;;;;;;;;;5034100;28;845;-71
2023/01/25 00:43:18;;;;;;;;;;;;;;;;;;5034827;28;959;-71
2023/01/25 00:45:43;;;;;;;;;;;;;;;;;;5033618;28;917;-71
2023/01/25 00:48:08;;;;;;;;;;;;;;;;;;5034228;28;893;-71
2023/01/25 00:50:35;;;;;;;;;;;;;;;;;;5034100;28;1953;-71
2023/01/25 00:53:00;;;;;;;;;;;;;;;;;;5031676;28;1301;-71
2023/01/25 00:55:26;;;;;;;;;;;;;;;;;;5033412;28;904;-71
2023/01/25 00:57:51;;;;;;;;;;;;;;;;;;5034047;28;861;-71
2023/01/25 01:00:17;;;;;;;;;;;;;;;;;;5032612;28;1004;-72
2023/01/25 01:02:42;;;;;;;;;;;;;;;;;;5032267;28;786;-71
2023/01/25 01:05:07;;;;;;;;;;;;;;;;;;5032483;28;1180;-71
2023/01/25 01:07:32;;;;;;;;;;;;;;;;;;5016065;28;1256;-71
2023/01/25 01:09:59;;;;;;;;;;;;;;;;;;5031987;28;1898;-71
2023/01/25 01:12:24;;;;;;;;;;;;;;;;;;5032733;28;1193;-71
2023/01/25 01:14:49;;;;;;;;;;;;;;;;;;5030008;28;1166;-71
2023/01/25 01:17:15;;;;;;;;;;;;;;;;;;5014240;28;1154;-71
2023/01/25 01:19:40;;;;;;;;;;;;;;;;;;5032137;28;1340;-71
2023/01/25 01:22:05;;;;;;;;;;;;;;;;;;5031961;28;1252;-71
2023/01/25 01:24:30;;;;;;;;;;;;;;;;;;5031735;28;1230;-71
2023/01/25 01:26:56;;;;;;;;;;;;;;;;;;5031578;28;1355;-71
2023/01/25 01:29:22;;;;;;;;;;;;;;;;;;5031959;28;1212;-72
2023/01/25 01:31:51;;;;;;;;;;;;;;;;;;5032891;28;1914;-71
2023/01/25 01:34:17;;;;;;;;;;;;;;;;;;5032486;28;1283;-71
2023/01/25 01:36:43;;;;;;;;;;;;;;;;;;5033222;28;829;-71
2023/01/25 01:39:08;;;;;;;;;;;;;;;;;;5033476;28;943;-71
2023/01/25 01:41:33;;;;;;;;;;;;;;;;;;5032215;28;916;-70
2023/01/25 01:43:59;;;;;;;;;;;;;;;;;;5031879;28;1176;-71
2023/01/25 01:46:24;;;;;;;;;;;;;;;;;;5015763;28;1200;-71
2023/01/25 01:48:52;;;;;;;;;;;;;;;;;;5033288;28;825;-71
2023/01/25 01:51:36;;;;;;;;;;;;;;;;;;5033609;28;1898;-71
2023/01/25 01:54:08;;;;;;;;;;;;;;;;;;5031722;28;1212;-72
2023/01/25 01:56:38;;;;;;;;;;;;;;;;;;5033053;28;888;-71
2023/01/25 01:59:04;;;;;;;;;;;;;;;;;;5033167;28;825;-71
2023/01/25 02:01:29;;;;;;;;;;;;;;;;;;5031039;28;1197;-71
2023/01/25 02:03:55;;;;;;;;;;;;;;;;;;5030777;28;1255;-71
2023/01/25 02:06:26;;;;;;;;;;;;;;;;;;5032535;28;775;-71
2023/01/25 02:08:52;;;;;;;;;;;;;;;;;;5032278;28;861;-71
2023/01/25 02:11:19;;;;;;;;;;;;;;;;;;5030999;28;1915;-72
2023/01/25 02:13:44;;;;;;;;;;;;;;;;;;5030875;28;1430;-71
2023/01/25 02:16:14;;;;;;;;;;;;;;;;;;5031127;28;865;-71
2023/01/25 02:18:39;;;;;;;;;;;;;;;;;;5032117;28;1054;-71
2023/01/25 02:21:04;;;;;;;;;;;;;;;;;;5032195;28;825;-71
2023/01/25 02:23:48;;;;;;;;;;;;;;;;;;5031014;28;1224;-71
2023/01/25 02:26:14;;;;;;;;;;;;;;;;;;5030715;28;1235;-71
2023/01/25 02:28:39;;;;;;;;;;;;;;;;;;5031918;28;928;-71
2023/01/25 02:31:04;;;;;;;;;;;;;;;;;;5030806;28;1910;-71
2023/01/25 02:33:30;;;;;;;;;;;;;;;;;;5030644;28;1713;-71
2023/01/25 02:36:00;;;;;;;;;;;;;;;;;;5030647;28;774;-71
2023/01/25 02:38:25;;;;;;;;;;;;;;;;;;5031922;28;782;-70
2023/01/25 02:40:59;;;;;;;;;;;;;;;;;;5031792;28;881;-71
2023/01/25 02:43:28;;;;;;;;;;;;;;;;;;5031492;28;896;-71
2023/01/25 02:45:58;;;;;;;;;;;;;;;;;;5031725;28;1194;-71
2023/01/25 02:48:23;;;;;;;;;;;;;;;;;;5032234;28;790;-70
2023/01/25 02:50:49;;;;;;;;;;;;;;;;;;5031623;28;1898;-70
2023/01/25 02:53:14;;;;;;;;;;;;;;;;;;5031746;28;944;-71
2023/01/25 02:55:39;;;;;;;;;;;;;;;;;;5014397;28;1286;-70
2023/01/25 02:58:04;;;;;;;;;;;;;;;;;;5032275;28;825;-71
2023/01/25 03:00:30;;;;;;;;;;;;;;;;;;5031171;28;1103;-71
2023/01/25 03:02:55;;;;;;;;;;;;;;;;;;5031448;28;999;-70
2023/01/25 03:05:20;;;;;;;;;;;;;;;;;;5030890;28;1182;-70
2023/01/25 03:07:45;;;;;;;;;;;;;;;;;;5031769;28;880;-71
2023/01/25 03:10:11;;;;;;;;;;;;;;;;;;5030960;28;1969;-71
2023/01/25 03:12:36;;;;;;;;;;;;;;;;;;5030823;28;826;-70
2023/01/25 03:15:02;;;;;;;;;;;;;;;;;;5032072;28;785;-70
2023/01/25 03:17:30;;;;;;;;;;;;;;;;;;5030673;28;1313;-70
2023/01/25 03:19:55;;;;;;;;;;;;;;;;;;5031055;28;1329;-71
2023/01/25 03:22:20;;;;;;;;;;;;;;;;;;5030520;28;858;-70
2023/01/25 03:24:45;;;;;;;;;;;;;;;;;;5030799;28;1081;-71
2023/01/25 03:27:12;;;;;;;;;;;;;;;;;;5031495;28;1024;-70
2023/01/25 03:29:38;;;;;;;;;;;;;;;;;;5031055;28;857;-71
2023/01/25 03:32:03;;;;;;;;;;;;;;;;;;5029525;28;1907;-70
2023/01/25 03:34:29;;;;;;;;;;;;;;;;;;5031264;28;948;-70
2023/01/25 03:36:54;;;;;;;;;;;;;;;;;;5031024;28;912;-71
2023/01/25 03:39:19;;;;;;;;;;;;;;;;;;5030305;28;1373;-71
2023/01/25 03:41:44;;;;;;;;;;;;;;;;;;5031004;28;923;-72
2023/01/25 03:44:13;;;;;;;;;;;;;;;;;;5030049;28;908;-72
2023/01/25 03:46:39;;;;;;;;;;;;;;;;;;5029808;28;1294;-71
2023/01/25 03:49:04;;;;;;;;;;;;;;;;;;5033913;28;837;-70
2023/01/25 03:51:29;;;;;;;;;;;;;;;;;;5034858;28;1902;-71
2023/01/25 03:53:55;;;;;;;;;;;;;;;;;;5016666;28;1335;-70
2023/01/25 03:56:20;;;;;;;;;;;;;;;;;;5034960;28;916;-70
2023/01/25 03:58:45;;;;;;;;;;;;;;;;;;5033126;28;1187;-71
2023/01/25 04:01:10;;;;;;;;;;;;;;;;;;5033255;28;1279;-70
2023/01/25 04:03:36;;;;;;;;;;;;;;;;;;5033382;28;1294;-71
2023/01/25 04:06:01;;;;;;;;;;;;;;;;;;5033026;28;932;-70
2023/01/25 04:08:26;;;;;;;;;;;;;;;;;;5035004;28;884;-71
2023/01/25 04:10:56;;;;;;;;;;;;;;;;;;5016488;28;1955;-70
2023/01/25 04:13:22;;;;;;;;;;;;;;;;;;5034347;28;940;-71
2023/01/25 04:15:48;;;;;;;;;;;;;;;;;;5034760;28;814;-71
2023/01/25 04:18:13;;;;;;;;;;;;;;;;;;5034593;28;1204;-70
2023/01/25 04:20:38;;;;;;;;;;;;;;;;;;5033367;28;1222;-70
2023/01/25 04:23:05;;;;;;;;;;;;;;;;;;5034476;28;781;-71
2023/01/25 04:25:31;;;;;;;;;;;;;;;;;;5033099;28;1338;-71
2023/01/25 04:27:56;;;;;;;;;;;;;;;;;;5032916;28;1204;-71
2023/01/25 04:30:21;;;;;;;;;;;;;;;;;;5016427;28;1958;-71
2023/01/25 04:32:47;;;;;;;;;;;;;;;;;;5016467;28;1302;-70
2023/01/25 04:35:12;;;;;;;;;;;;;;;;;;5032781;28;1195;-71
2023/01/25 04:37:38;;;;;;;;;;;;;;;;;;5034355;28;900;-71
2023/01/25 04:40:03;;;;;;;;;;;;;;;;;;5032747;28;1160;-71
2023/01/25 04:42:29;;;;;;;;;;;;;;;;;;5033429;28;929;-71
2023/01/25 04:44:54;;;;;;;;;;;;;;;;;;5033986;28;652;-70
2023/01/25 04:47:19;;;;;;;;;;;;;;;;;;5034520;28;991;-71
2023/01/25 04:49:45;;;;;;;;;;;;;;;;;;5033581;28;1922;-71
2023/01/25 04:52:10;;;;;;;;;;;;;;;;;;5016532;28;1192;-70
2023/01/25 04:54:35;;;;;;;;;;;;;;;;;;5033021;28;1221;-71
2023/01/25 04:57:00;;;;;;;;;;;;;;;;;;5032245;28;1199;-70
2023/01/25 04:59:26;;;;;;;;;;;;;;;;;;5033418;28;967;-70
2023/01/25 05:01:52;;;;;;;;;;;;;;;;;;5032120;28;1208;-70
2023/01/25 05:04:17;;;;;;;;;;;;;;;;;;5015992;28;1353;-70
2023/01/25 05:06:42;;;;;;;;;;;;;;;;;;5033722;28;837;-70
2023/01/25 05:09:08;;;;;;;;;;;;;;;;;;5032502;28;897;-70
2023/01/25 05:11:33;;;;;;;;;;;;;;;;;;5033408;28;1909;-71
2023/01/25 05:13:59;;;;;;;;;;;;;;;;;;5032929;28;856;-71
2023/01/25 05:16:24;;;;;;;;;;;;;;;;;;5032378;28;825;-70
2023/01/25 05:18:49;;;;;;;;;;;;;;;;;;5032620;28;1225;-70
2023/01/25 05:23:58;;;;;;;;;;;;;;;;;;5033070;28;663;-70
2023/01/25 05:29:08;;;;;;;;;;;;;;;;;;5033217;28;656;-71
2023/01/25 05:31:33;;;;;;;;;;;;;;;;;;5032034;28;1906;-71
2023/01/25 05:33:59;;;;;;;;;;;;;;;;;;5033171;28;876;-70
2023/01/25 05:36:24;;;;;;;;;;;;;;;;;;5015312;28;1172;-70
2023/01/25 05:38:49;;;;;;;;;;;;;;;;;;5032936;28;1058;-71
2023/01/25 05:41:14;;;;;;;;;;;;;;;;;;5031769;28;1273;-71
2023/01/25 05:43:40;;;;;;;;;;;;;;;;;;5015385;28;1207;-71
2023/01/25 05:46:06;;;;;;;;;;;;;;;;;;5032888;28;834;-70
2023/01/25 05:48:32;;;;;;;;;;;;;;;;;;5031694;28;1212;-70
2023/01/25 05:50:57;;;;;;;;;;;;;;;;;;5014774;28;1945;-70
2023/01/25 05:53:26;;;;;;;;;;;;;;;;;;5031525;28;1176;-71
2023/01/25 05:55:52;;;;;;;;;;;;;;;;;;5014946;28;1398;-71
2023/01/25 05:58:17;;;;;;;;;;;;;;;;;;5031847;28;1079;-70
2023/01/25 06:00:42;;;;;;;;;;;;;;;;;;5032274;28;1120;-70
2023/01/25 06:03:08;;;;;;;;;;;;;;;;;;5032742;28;877;-70
2023/01/25 06:05:33;;;;;;;;;;;;;;;;;;5032950;28;891;-71
2023/01/25 06:07:58;;;;;;;;;;;;;;;;;;5032624;28;955;-68
2023/01/25 06:10:24;;;;;;;;;;;;;;;;;;5032118;28;1933;-67
2023/01/25 06:12:50;;;;;;;;;;;;;;;;;;5031110;28;941;-67
2023/01/25 06:15:15;;;;;;;;;;;;;;;;;;5030878;28;873;-68
2023/01/25 06:17:40;;;;;;;;;;;;;;;;;;5030850;28;1353;-67
2023/01/25 06:20:06;;;;;;;;;;;;;;;;;;5032248;28;892;-68
2023/01/25 06:22:31;;;;;;;;;;;;;;;;;;5032725;28;802;-68
2023/01/25 06:24:56;;;;;;;;;;;;;;;;;;5031741;28;936;-67
2023/01/25 06:27:22;;;;;;;;;;;;;;;;;;5031037;28;1196;-67
2023/01/25 06:29:47;;;;;;;;;;;;;;;;;;5032762;28;885;-68
2023/01/25 06:32:12;;;;;;;;;;;;;;;;;;5030535;28;1981;-68
2023/01/25 06:34:37;;;;;;;;;;;;;;;;;;5030754;28;1160;-67
2023/01/25 06:37:03;;;;;;;;;;;;;;;;;;5030456;28;814;-67
2023/01/25 06:39:28;;;;;;;;;;;;;;;;;;5030675;28;1423;-67
2023/01/25 06:41:54;;;;;;;;;;;;;;;;;;5031825;28;770;-67
2023/01/25 06:44:20;;;;;;;;;;;;;;;;;;5030602;28;1428;-68
2023/01/25 06:46:45;;;;;;;;;;;;;;;;;;5031652;28;841;-67
2023/01/25 06:49:11;;;;;;;;;;;;;;;;;;5031861;28;900;-67
2023/01/25 06:51:36;;;;;;;;;;;;;;;;;;5030438;28;1910;-68
2023/01/25 06:54:03;;;;;;;;;;;;;;;;;;5030572;28;988;-67
2023/01/25 06:56:28;;;;;;;;;;;;;;;;;;5031873;28;892;-67
2023/01/25 06:58:53;;;;;;;;;;;;;;;;;;5030365;28;868;-67
2023/01/25 07:01:20;;;;;;;;;;;;;;;;;;5030229;28;1271;-68
2023/01/25 07:03:50;;;;;;;;;;;;;;;;;;5030385;28;1267;-68
2023/01/25 07:06:15;;;;;;;;;;;;;;;;;;5031600;28;896;-67
2023/01/25 07:08:40;;;;;;;;;;;;;;;;;;5030517;28;1207;-68
2023/01/25 07:11:08;;;;;;;;;;;;;;;;;;5029711;28;1898;-68
2023/01/25 07:13:33;;;;;;;;;;;;;;;;;;5030562;28;1180;-67
2023/01/25 07:16:00;;;;;;;;;;;;;;;;;;5031920;28;994;-67
2023/01/25 07:18:26;;;;;;;;;;;;;;;;;;5031733;28;1193;-67
2023/01/25 07:20:52;;;;;;;;;;;;;;;;;;5030152;28;1410;-68
2023/01/25 07:23:17;;;;;;;;;;;;;;;;;;5030548;28;849;-67
2023/01/25 07:25:46;;;;;;;;;;;;;;;;;;5031728;28;881;-67
2023/01/25 07:28:12;;;;;;;;;;;;;;;;;;5031501;28;951;-67
2023/01/25 07:30:37;;;;;;;;;;;;;;;;;;5030496;28;1906;-67
2023/01/25 07:33:02;;;;;;;;;;;;;;;;;;5029752;28;1394;-68
2023/01/25 07:35:28;;;;;;;;;;;;;;;;;;5028811;28;1219;-68
2023/01/25 07:37:54;;;;;;;;;;;;;;;;;;5028512;28;1177;-68
2023/01/25 07:40:19;;;;;;;;;;;;;;;;;;5029339;28;1145;-68
2023/01/25 07:42:44;;;;;;;;;;;;;;;;;;5011960;28;1213;-67
2023/01/25 07:45:10;;;;;;;;;;;;;;;;;;5027537;28;1119;-67
2023/01/25 07:47:35;;;;;;;;;;;;;;;;;;5012684;28;1246;-67
2023/01/25 07:50:04;;;;;;;;;;;;;;;;;;5029443;28;1941;-68
2023/01/25 07:52:29;;;;;;;;;;;;;;;;;;5028786;28;1171;-67
2023/01/25 07:54:54;;;;;;;;;;;;;;;;;;5011635;28;1205;-69
2023/01/25 07:57:19;;;;;;;;;;;;;;;;;;5029776;28;1201;-69
2023/01/25 07:59:45;;;;;;;;;;;;;;;;;;5029932;28;1164;-69
2023/01/25 08:02:11;;;;;;;;;;;;;;;;;;5028949;28;1157;-69
2023/01/25 08:04:36;;;;;;;;;;;;;;;;;;5027306;28;1137;-69
2023/01/25 08:07:01;;;;;;;;;;;;;;;;;;5011733;28;1259;-69
2023/01/25 08:09:27;;;;;;;;;;;;;;;;;;5013128;28;1229;-70
2023/01/25 08:11:52;;;;;;;;;;;;;;;;;;5029506;28;1957;-69
2023/01/25 08:14:18;;;;;;;;;;;;;;;;;;5031199;28;881;-70
2023/01/25 08:16:43;;;;;;;;;;;;;;;;;;5031020;28;825;-69
2023/01/25 08:19:09;;;;;;;;;;;;;;;;;;5028820;28;1237;-69
2023/01/25 08:21:34;;;;;;;;;;;;;;;;;;5029696;28;1185;-70
2023/01/25 08:24:01;;;;;;;;;;;;;;;;;;5030686;28;979;-69
2023/01/25 08:26:26;;;;;;;;;;;;;;;;;;5030925;28;912;-69
2023/01/25 08:28:52;;;;;;;;;;;;;;;;;;5030851;28;857;-69
2023/01/25 08:31:19;;;;;;;;;;;;;;;;;;5030905;28;1914;-69
2023/01/25 08:33:46;;;;;;;;;;;;;;;;;;5031461;28;873;-69
2023/01/25 08:36:12;;;;;;;;;;;;;;;;;;5034026;28;895;-69
2023/01/25 08:38:38;;;;;;;;;;;;;;;;;;5034707;28;845;-69
2023/01/25 08:41:07;;;;;;;;;;;;;;;;;;5033516;28;1367;-69
2023/01/25 08:43:33;;;;;;;;;;;;;;;;;;5033488;28;1371;-70
2023/01/25 08:45:58;;;;;;;;;;;;;;;;;;5032858;28;1227;-69
2023/01/25 08:48:23;;;;;;;;;;;;;;;;;;5034727;28;848;-69
2023/01/25 08:50:48;;;;;;;;;;;;;;;;;;5034731;28;1882;-69
2023/01/25 08:53:14;;;;;;;;;;;;;;;;;;5034825;28;900;-69
2023/01/25 08:55:41;;;;;;;;;;;;;;;;;;5034343;28;983;-69
2023/01/25 08:58:09;;;;;;;;;;;;;;;;;;5034272;28;876;-69
2023/01/25 09:00:35;;;;;;;;;;;;;;;;;;5034363;28;900;-69
2023/01/25 09:03:01;;;;;;;;;;;;;;;;;;5033449;28;904;-70
2023/01/25 09:05:26;;;;;;;;;;;;;;;;;;5014479;28;1330;-70
2023/01/25 09:07:52;;;;;;;;;;;;;;;;;;5030694;28;1260;-69
2023/01/25 09:10:17;;;;;;;;;;;;;;;;;;5032494;28;1910;-70
2023/01/25 09:12:42;;;;;;;;;;;;;;;;;;5030882;28;1469;-69
2023/01/25 09:15:08;;;;;;;;;;;;;;;;;;5014412;28;1517;-69
2023/01/25 09:17:37;;;;;;;;;;;;;;;;;;5031819;28;1414;-70
2023/01/25 09:20:03;;;;;;;;;;;;;;;;;;5031782;28;1190;-69
2023/01/25 09:22:30;;;;;;;;;;;;;;;;;;5013249;28;1358;-69
2023/01/25 09:24:55;;;;;;;;;;;;;;;;;;5030432;28;1370;-69
2023/01/25 09:27:20;;;;;;;;;;;;;;;;;;5031260;28;1201;-69
2023/01/25 09:29:46;;;;;;;;;;;;;;;;;;5031994;28;1422;-69
2023/01/25 09:32:12;;;;;;;;;;;;;;;;;;5033009;28;1976;-69
2023/01/25 09:34:37;;;;;;;;;;;;;;;;;;5033277;28;830;-69
2023/01/25 09:37:02;;;;;;;;;;;;;;;;;;5032726;28;943;-69
2023/01/25 09:39:27;;;;;;;;;;;;;;;;;;5032327;28;1112;-69
2023/01/25 09:41:56;;;;;;;;;;;;;;;;;;5031918;28;1219;-69
2023/01/25 09:44:24;;;;;;;;;;;;;;;;;;5033535;28;935;-70
2023/01/25 09:46:52;;;;;;;;;;;;;;;;;;5030878;28;1302;-70
2023/01/25 09:49:28;;;;;;;;;;;;;;;;;;5031578;28;1277;-70
2023/01/25 09:51:56;;;;;;;;;;;;;;;;;;5032760;28;1975;-70
2023/01/25 09:54:24;;;;;;;;;;;;;;;;;;5032575;28;939;-70
2023/01/25 09:56:50;;;;;;;;;;;;;;;;;;5033500;28;856;-70
2023/01/25 09:59:18;;;;;;;;;;;;;;;;;;5031402;28;1450;-70
2023/01/25 10:01:43;;;;;;;;;;;;;;;;;;5033777;28;825;-70
2023/01/25 10:04:15;;;;;;;;;;;;;;;;;;5031517;28;1212;-70
2023/01/25 10:06:41;;;;;;;;;;;;;;;;;;5031375;28;1179;-70
2023/01/25 10:09:36;;;;;;;;;;;;;;;;;;5031003;28;1358;-70
2023/01/25 10:12:10;;;;;;;;;;;;;;;;;;5023833;28;1902;-70
2023/01/25 10:14:35;;;;;;;;;;;;;;;;;;5030628;28;1367;-70
2023/01/25 10:17:04;;;;;;;;;;;;;;;;;;5032843;28;821;-69
2023/01/25 10:19:40;;;;;;;;;;;;;;;;;;5031042;28;1352;-69
2023/01/25 10:22:08;;;;;;;;;;;;;;;;;;5032569;28;904;-67
2023/01/25 10:24:52;;;;;;;;;;;;;;;;;;5031412;28;1046;-68
2023/01/25 10:27:17;;;;;;;;;;;;;;;;;;5032731;28;879;-67
2023/01/25 10:29:43;;;;;;;;;;;;;;;;;;5032954;28;860;-67
2023/01/25 10:32:23;;;;;;;;;;;;;;;;;;5032167;28;1914;-67
2023/01/25 10:34:49;;;;;;;;;;;;;;;;;;5031624;28;1311;-68
2023/01/25 10:37:24;;;;;;;;;;;;;;;;;;5031240;28;1208;-67
2023/01/25 10:40:05;;;;;;;;;;;;;;;;;;5031801;28;1216;-67
2023/01/25 10:42:36;;;;;;;;;;;;;;;;;;5032310;28;869;-67
2023/01/25 10:45:11;;;;;;;;;;;;;;;;;;5031849;28;841;-67
2023/01/25 10:47:40;;;;;;;;;;;;;;;;;;5032411;28;840;-68
2023/01/25 10:50:26;;;;;;;;;;;;;;;;;;5030839;28;1902;-68
2023/01/25 10:52:57;;;;;;;;;;;;;;;;;;5029500;28;1477;-67
2023/01/25 10:55:24;;;;;;;;;;;;;;;;;;5030813;28;916;-67
2023/01/25 10:57:54;;;;;;;;;;;;;;;;;;5031862;28;864;-67
2023/01/25 11:00:19;;;;;;;;;;;;;;;;;;5030823;28;1251;-67
2023/01/25 11:02:45;;;;;;;;;;;;;;;;;;5030955;28;1212;-67
2023/01/25 11:05:17;;;;;;;;;;;;;;;;;;5030586;28;892;-67
2023/01/25 11:07:43;;;;;;;;;;;;;;;;;;5032693;28;885;-68
2023/01/25 11:10:27;;;;;;;;;;;;;;;;;;5030972;28;1961;-68
2023/01/25 11:13:10;;;;;;;;;;;;;;;;;;5031352;28;1036;-68
2023/01/25 11:15:36;;;;;;;;;;;;;;;;;;5031367;28;777;-68
2023/01/25 11:18:20;;;;;;;;;;;;;;;;;;5031649;28;955;-67
2023/01/25 11:20:46;;;;;;;;;;;;;;;;;;5030449;28;1149;-68
2023/01/25 11:23:22;;;;;;;;;;;;;;;;;;5031606;28;943;-68
2023/01/25 11:25:48;;;;;;;;;;;;;;;;;;5030540;28;1201;-68
2023/01/25 11:28:13;;;;;;;;;;;;;;;;;;5030242;28;1523;-68
2023/01/25 11:30:38;;;;;;;;;;;;;;;;;;5030246;28;1898;-71
2023/01/25 11:33:08;;;;;;;;;;;;;;;;;;5032142;28;1189;-72
2023/01/25 11:35:34;;;;;;;;;;;;;;;;;;5032651;28;896;-71
2023/01/25 11:38:00;;;;;;;;;;;;;;;;;;5014517;28;1294;-71
2023/01/25 11:40:37;;;;;;;;;;;;;;;;;;5032362;28;856;-71
2023/01/25 11:43:02;;;;;;;;;;;;;;;;;;5032407;28;841;-72
2023/01/25 11:45:30;;;;;;;;;;;;;;;;;;5032261;28;782;-72
2023/01/25 11:48:14;;;;;;;;;;;;;;;;;;5032921;28;833;-71
2023/01/25 11:50:41;;;;;;;;;;;;;;;;;;5032750;28;1940;-71
2023/01/25 11:53:25;;;;;;;;;;;;;;;;;;5031883;28;1204;-71
2023/01/25 11:56:08;;;;;;;;;;;;;;;;;;5032819;28;868;-72
2023/01/25 11:58:37;;;;;;;;;;;;;;;;;;5031785;28;1378;-73
2023/01/25 12:01:08;;;;;;;;;;;;;;;;;;5033387;28;928;-72
2023/01/25 12:03:48;;;;;;;;;;;;;;;;;;5032306;28;1200;-73
2023/01/25 12:06:32;;;;;;;;;;;;;;;;;;5031670;28;1449;-73
2023/01/25 12:09:03;;;;;;;;;;;;;;;;;;5034351;28;881;-73
2023/01/25 12:11:47;;;;;;;;;;;;;;;;;;5036551;28;1883;-72
2023/01/25 12:14:31;;;;;;;;;;;;;;;;;;5036196;28;1503;-73
2023/01/25 12:17:13;;;;;;;;;;;;;;;;;;5035399;28;1225;-73
2023/01/25 12:20:01;;;;;;;;;;;;;;;;;;5037507;28;1007;-73
2023/01/25 12:22:29;;;;;;;;;;;;;;;;;;5034535;28;1485;-73
2023/01/25 12:25:01;;;;;;;;;;;;;;;;;;5035517;28;1418;-72
2023/01/25 12:27:30;;;;;;;;;;;;;;;;;;5038582;28;1311;-73
2023/01/25 12:29:59;;;;;;;;;;;;;;;;;;5041240;28;822;-73
2023/01/25 12:32:32;;;;;;;;;;;;;;;;;;5041067;28;1887;-73
2023/01/25 12:35:12;;;;;;;;;;;;;;;;;;5042523;28;1196;-73
2023/01/25 12:37:41;;;;;;;;;;;;;;;;;;5043446;28;954;-72
2023/01/25 12:40:28;;;;;;;;;;;;;;;;;;5043196;28;896;-73
2023/01/25 12:42:56;;;;;;;;;;;;;;;;;;5041876;28;781;-73
2023/01/25 12:45:23;;;;;;;;;;;;;;;;;;5037310;28;1255;-73
2023/01/25 12:48:18;;;;;;;;;;;;;;;;;;5038966;28;958;-73
2023/01/25 12:51:09;;;;;;;;;;;;;;;;;;5030261;28;1975;-73
2023/01/25 12:53:36;;;;;;;;;;;;;;;;;;5036585;28;1184;-73
2023/01/25 12:56:05;;;;;;;;;;;;;;;;;;5037526;28;1266;-73
2023/01/25 12:58:42;;;;;;;;;;;;;;;;;;5039094;28;995;-73
2023/01/25 13:01:20;;;;;;;;;;;;;;;;;;5038559;28;1090;-72
2023/01/25 13:04:03;;;;;;;;;;;;;;;;;;5039022;28;1050;-72
2023/01/25 13:06:43;;;;;;;;;;;;;;;;;;5038992;28;821;-73
2023/01/25 13:09:27;;;;;;;;;;;;;;;;;;5037628;28;1294;-72
2023/01/25 13:11:53;;;;;;;;;;;;;;;;;;5037643;28;1922;-72
2023/01/25 13:14:29;;;;;;;;;;;;;;;;;;5021216;28;1224;-73
2023/01/25 13:17:10;;;;;;;;;;;;;;;;;;5038907;28;865;-73
2023/01/25 13:19:35;;;;;;;;;;;;;;;;;;5037635;28;1071;-72
2023/01/25 13:22:00;;;;;;;;;;;;;;;;;;5039456;28;951;-73
2023/01/25 13:24:26;;;;;;;;;;;;;;;;;;5020537;28;1180;-72
2023/01/25 13:26:51;;;;;;;;;;;;;;;;;;5035754;28;1156;-73
2023/01/25 13:29:32;;;;;;;;;;;;;;;;;;5035616;28;1282;-73
2023/01/25 13:31:58;;;;;;;;;;;;;;;;;;5036434;28;1914;-73
2023/01/25 13:34:37;;;;;;;;;;;;;;;;;;5037344;28;1070;-73
2023/01/25 13:37:14;;;;;;;;;;;;;;;;;;5037274;28;908;-72
2023/01/25 13:39:41;;;;;;;;;;;;;;;;;;5036063;28;1318;-73
2023/01/25 13:42:10;;;;;;;;;;;;;;;;;;5034776;28;876;-73
2023/01/25 13:44:38;;;;;;;;;;;;;;;;;;5034203;28;912;-73
2023/01/25 13:47:06;;;;;;;;;;;;;;;;;;5032383;28;1219;-73
2023/01/25 13:49:35;;;;;;;;;;;;;;;;;;5033907;28;849;-73
2023/01/25 13:52:00;;;;;;;;;;;;;;;;;;5032378;28;1961;-73
2023/01/25 13:54:26;;;;;;;;;;;;;;;;;;5033919;28;892;-73
2023/01/25 13:57:10;;;;;;;;;;;;;;;;;;5033335;28;911;-72
2023/01/25 13:59:35;;;;;;;;;;;;;;;;;;5033272;28;868;-72
2023/01/25 14:02:01;;;;;;;;;;;;;;;;;;5033380;28;959;-72
2023/01/25 14:04:27;;;;;;;;;;;;;;;;;;5015578;28;1502;-72
2023/01/25 14:06:56;;;;;;;;;;;;;;;;;;5031759;28;1440;-73
2023/01/25 14:09:23;;;;;;;;;;;;;;;;;;5033175;28;975;-73
2023/01/25 14:11:52;;;;;;;;;;;;;;;;;;5033496;28;1894;-73
2023/01/25 14:14:19;;;;;;;;;;;;;;;;;;5033023;28;1152;-72
2023/01/25 14:16:45;;;;;;;;;;;;;;;;;;5033372;28;836;-73
2023/01/25 14:19:19;;;;;;;;;;;;;;;;;;5031579;28;1395;-72
2023/01/25 14:21:45;;;;;;;;;;;;;;;;;;5032262;28;1190;-72
2023/01/25 14:24:10;;;;;;;;;;;;;;;;;;5031801;28;854;-73
2023/01/25 14:26:38;;;;;;;;;;;;;;;;;;5031950;28;1188;-73
2023/01/25 14:29:14;;;;;;;;;;;;;;;;;;5031610;28;1263;-73
2023/01/25 14:31:39;;;;;;;;;;;;;;;;;;5032114;28;1918;-73
2023/01/25 14:34:07;;;;;;;;;;;;;;;;;;5033402;28;878;-72
2023/01/25 14:36:35;;;;;;;;;;;;;;;;;;5015322;28;1212;-72
2023/01/25 14:39:00;;;;;;;;;;;;;;;;;;5032296;28;1073;-72
2023/01/25 14:41:28;;;;;;;;;;;;;;;;;;5032823;28;1038;-73
2023/01/25 14:43:55;;;;;;;;;;;;;;;;;;5032833;28;853;-72
2023/01/25 14:46:47;;;;;;;;;;;;;;;;;;5032104;28;1164;-72
2023/01/25 14:49:25;;;;;;;;;;;;;;;;;;5028793;28;1299;-72
2023/01/25 14:51:50;;;;;;;;;;;;;;;;;;5031950;28;1968;-72
2023/01/25 14:54:17;;;;;;;;;;;;;;;;;;5032062;28;868;-73
2023/01/25 14:56:47;;;;;;;;;;;;;;;;;;5032469;28;814;-73
2023/01/25 14:59:25;;;;;;;;;;;;;;;;;;5032669;28;914;-72
2023/01/25 15:01:53;;;;;;;;;;;;;;;;;;5031647;28;1291;-73
2023/01/25 15:04:19;;;;;;;;;;;;;;;;;;5032840;28;966;-73
2023/01/25 15:06:48;;;;;;;;;;;;;;;;;;5030911;28;1317;-73
2023/01/25 15:09:32;;;;;;;;;;;;;;;;;;5032521;28;857;-73
2023/01/25 15:11:59;;;;;;;;;;;;;;;;;;5030767;28;1983;-73
2023/01/25 15:14:26;;;;;;;;;;;;;;;;;;5031774;28;1220;-73
2023/01/25 15:16:52;;;;;;;;;;;;;;;;;;5030553;28;1236;-73
2023/01/25 15:19:20;;;;;;;;;;;;;;;;;;5030315;28;1192;-73
2023/01/25 15:21:47;;;;;;;;;;;;;;;;;;5030200;28;1335;-73
2023/01/25 15:24:12;;;;;;;;;;;;;;;;;;5030372;28;1219;-73
2023/01/25 15:26:38;;;;;;;;;;;;;;;;;;5030533;28;1314;-73
2023/01/25 15:29:12;;;;;;;;;;;;;;;;;;5013712;28;1169;-73
2023/01/25 15:31:37;;;;;;;;;;;;;;;;;;5030493;28;1906;-73
2023/01/25 15:34:03;;;;;;;;;;;;;;;;;;5031829;28;951;-73
2023/01/25 15:36:29;;;;;;;;;;;;;;;;;;5030828;28;1303;-72
2023/01/25 15:38:55;;;;;;;;;;;;;;;;;;5030711;28;833;-73
2023/01/25 15:41:20;;;;;;;;;;;;;;;;;;5014075;28;1342;-73
2023/01/25 15:43:46;;;;;;;;;;;;;;;;;;5033699;28;888;-74
2023/01/25 15:46:14;;;;;;;;;;;;;;;;;;5034817;28;1314;-73
2023/01/25 15:48:41;;;;;;;;;;;;;;;;;;5034831;28;1196;-73
2023/01/25 15:51:06;;;;;;;;;;;;;;;;;;5033842;28;1899;-73
2023/01/25 15:53:31;;;;;;;;;;;;;;;;;;5036295;28;1131;-73
2023/01/25 15:56:02;;;;;;;;;;;;;;;;;;5017948;28;1254;-73
2023/01/25 15:58:33;;;;;;;;;;;;;;;;;;5034514;28;1251;-72
2023/01/25 16:00:59;;;;;;;;;;;;;;;;;;5035514;28;952;-73
2023/01/25 16:03:24;;;;;;;;;;;;;;;;;;5034585;28;902;-73
2023/01/25 16:05:52;;;;;;;;;;;;;;;;;;5018082;28;1354;-72
2023/01/25 16:08:18;;;;;;;;;;;;;;;;;;5034558;28;1231;-73
2023/01/25 16:10:44;;;;;;;;;;;;;;;;;;5035150;28;1906;-73
2023/01/25 16:13:09;;;;;;;;;;;;;;;;;;5033725;28;1377;-72
2023/01/25 16:15:36;;;;;;;;;;;;;;;;;;5034086;28;979;-73
2023/01/25 16:18:01;;;;;;;;;;;;;;;;;;5034714;28;841;-72
2023/01/25 16:20:26;;;;;;;;;;;;;;;;;;5017246;28;1201;-73
2023/01/25 16:22:52;;;;;;;;;;;;;;;;;;5035506;28;853;-73
2023/01/25 16:25:17;;;;;;;;;;;;;;;;;;5035793;28;1038;-72
2023/01/25 16:27:42;;;;;;;;;;;;;;;;;;5033866;28;1355;-72
2023/01/25 16:30:16;;;;;;;;;;;;;;;;;;5017519;28;1294;-72
2023/01/25 16:32:41;;;;;;;;;;;;;;;;;;5035773;28;930;-73
2023/01/25 16:35:07;;;;;;;;;;;;;;;;;;5017175;28;1369;-72
2023/01/25 16:37:32;;;;;;;;;;;;;;;;;;5034422;28;1381;-72
2023/01/25 16:39:58;;;;;;;;;;;;;;;;;;5034559;28;983;-72
2023/01/25 16:42:23;;;;;;;;;;;;;;;;;;5034005;28;1298;-72
2023/01/25 16:44:48;;;;;;;;;;;;;;;;;;5035100;28;908;-72
2023/01/25 16:47:14;;;;;;;;;;;;;;;;;;5033923;28;881;-72
2023/01/25 16:49:39;;;;;;;;;;;;;;;;;;5016718;28;1196;-72
2023/01/25 16:52:04;;;;;;;;;;;;;;;;;;5033076;28;1910;-71
2023/01/25 16:54:30;;;;;;;;;;;;;;;;;;5032233;28;884;-72
2023/01/25 16:56:55;;;;;;;;;;;;;;;;;;5034771;28;908;-72
2023/01/25 16:59:22;;;;;;;;;;;;;;;;;;5033643;28;901;-72
2023/01/25 17:01:47;;;;;;;;;;;;;;;;;;5033315;28;885;-72
2023/01/25 17:04:13;;;;;;;;;;;;;;;;;;5032943;28;1350;-72
2023/01/25 17:06:41;;;;;;;;;;;;;;;;;;5033047;28;1178;-72
2023/01/25 17:09:07;;;;;;;;;;;;;;;;;;5032568;28;1409;-72
2023/01/25 17:11:37;;;;;;;;;;;;;;;;;;5033094;28;1890;-72
2023/01/25 17:14:02;;;;;;;;;;;;;;;;;;5016505;28;1093;-72
2023/01/25 17:16:28;;;;;;;;;;;;;;;;;;5032723;28;1350;-70
2023/01/25 17:18:55;;;;;;;;;;;;;;;;;;5031188;28;1209;-71
2023/01/25 17:21:21;;;;;;;;;;;;;;;;;;5030991;28;1503;-71